Time;durP1;ratioP1;P1;durP2;ratioP2;P2;SDS_P1;SDS_P2;PMS_P1;PMS_P2;Temp;Humidity;BMP_temperature;BMP_pressure;BME280_temperature;BME280_humidity;BME280_pressure;Samples;Min_cycle;Max_cycle;Signal;HPM_P1;HPM_P2
2023/03/19 00:02:37;;;;;;;33.47;19.60;;;9.60;68.80;;;;;;4878044;29;20100;-67
2023/03/19 00:06:18;;;;;;;30.83;17.70;;;9.60;68.80;;;;;;4877599;29;20096;-67
2023/03/19 00:12:19;;;;;;;26.63;16.27;;;9.50;68.50;;;;;;4803867;29;20103;-67
2023/03/19 00:14:46;;;;;;;26.63;16.90;;;9.50;68.70;;;;;;4910027;28;20533;-67
2023/03/19 00:17:12;;;;;;;23.87;15.03;;;9.50;68.50;;;;;;5025878;28;20053;-67
2023/03/19 00:19:38;;;;;;;24.70;15.30;;;9.50;68.40;;;;;;5033170;28;20481;-67
2023/03/19 00:22:04;;;;;;;24.83;14.47;;;9.50;68.60;;;;;;5033009;28;20112;-67
2023/03/19 00:24:30;;;;;;;27.37;16.40;;;9.50;68.60;;;;;;5032907;28;20064;-67
2023/03/19 00:26:56;;;;;;;30.77;17.97;;;9.40;68.70;;;;;;5032672;28;20052;-67
2023/03/19 00:29:22;;;;;;;41.33;20.47;;;9.40;68.50;;;;;;5032636;28;20033;-67
2023/03/19 00:31:48;;;;;;;41.07;23.37;;;9.30;68.10;;;;;;5015198;28;20369;-66
2023/03/19 00:34:17;;;;;;;37.17;21.83;;;9.30;68.00;;;;;;5032785;28;20071;-66
2023/03/19 00:36:43;;;;;;;39.20;22.97;;;9.20;68.20;;;;;;5032751;28;20032;-67
2023/03/19 00:39:08;;;;;;;40.53;22.17;;;9.20;68.30;;;;;;5032750;28;20533;-67
2023/03/19 00:41:34;;;;;;;37.10;23.17;;;9.20;68.70;;;;;;5032722;28;20108;-67
2023/03/19 00:44:00;;;;;;;36.77;20.30;;;9.10;68.80;;;;;;5032606;28;20113;-67
2023/03/19 00:46:26;;;;;;;32.10;19.87;;;9.10;69.60;;;;;;5032197;28;20133;-68
2023/03/19 00:48:54;;;;;;;36.67;21.30;;;9.10;69.60;;;;;;5032671;28;20048;-67
2023/03/19 00:51:20;;;;;;;36.00;19.87;;;9.00;69.60;;;;;;5032712;28;20385;-67
2023/03/19 00:53:46;;;;;;;36.43;20.40;;;9.00;69.90;;;;;;5032447;28;20068;-66
2023/03/19 00:56:14;;;;;;;35.40;21.17;;;9.00;70.00;;;;;;5032600;28;20029;-67
2023/03/19 00:58:40;;;;;;;39.43;21.83;;;9.00;70.50;;;;;;5032494;28;20113;-67
2023/03/19 01:01:11;;;;;;;39.07;21.50;;;9.00;69.50;;;;;;5006740;28;20108;-67
2023/03/19 01:03:37;;;;;;;34.20;20.53;;;9.00;69.20;;;;;;5032549;28;20022;-67
2023/03/19 01:06:03;;;;;;;36.30;20.03;;;9.00;69.10;;;;;;5032360;28;20033;-66
2023/03/19 01:08:29;;;;;;;30.93;17.47;;;8.90;69.20;;;;;;5032249;28;20026;-67
2023/03/19 01:10:55;;;;;;;27.70;16.07;;;8.90;69.00;;;;;;5032399;28;20366;-66
2023/03/19 01:13:21;;;;;;;28.03;16.43;;;8.90;68.90;;;;;;5032423;28;20044;-67
2023/03/19 01:15:52;;;;;;;30.43;18.17;;;8.90;68.90;;;;;;5035873;28;20026;-67
2023/03/19 01:18:18;;;;;;;27.23;17.47;;;8.80;69.70;;;;;;5036940;28;20021;-67
2023/03/19 01:20:44;;;;;;;31.27;17.57;;;8.80;69.20;;;;;;5036795;28;20504;-67
2023/03/19 01:23:10;;;;;;;28.17;16.83;;;8.80;69.60;;;;;;5036815;28;20351;-67
2023/03/19 01:25:38;;;;;;;30.80;18.50;;;8.70;70.30;;;;;;5036553;28;20040;-67
2023/03/19 01:28:04;;;;;;;33.17;19.10;;;8.70;70.30;;;;;;5036674;28;20030;-66
2023/03/19 01:34:42;;;;;;;29.87;17.13;;;8.60;70.30;;;;;;5035043;28;20031;-67
2023/03/19 01:50:56;;;;;;;;;;;8.50;71.30;;;;;;4937172;29;20099;-67
2023/03/19 01:57:02;;;;;;;30.33;17.60;;;8.50;71.30;;;;;;4898300;29;20084;-67
2023/03/19 01:59:33;;;;;;;28.57;17.00;;;8.50;71.40;;;;;;4918928;29;20082;-67
2023/03/19 02:02:21;;;;;;;30.90;15.73;;;8.50;71.40;;;;;;5007594;28;20045;-67
2023/03/19 02:04:51;;;;;;;27.87;15.63;;;8.40;71.30;;;;;;5034024;28;20021;-67
2023/03/19 02:07:17;;;;;;;28.57;14.77;;;8.40;71.10;;;;;;5035153;28;20338;-67
2023/03/19 02:09:44;;;;;;;27.93;16.00;;;8.40;71.20;;;;;;5035080;28;20373;-67
2023/03/19 02:12:11;;;;;;;23.80;14.50;;;8.30;71.50;;;;;;5035324;28;20030;-67
2023/03/19 02:14:37;;;;;;;24.17;13.77;;;8.30;71.60;;;;;;5017307;28;20026;-67
2023/03/19 02:17:03;;;;;;;23.43;14.10;;;8.30;71.70;;;;;;5017623;28;20071;-67
2023/03/19 02:19:32;;;;;;;28.60;15.40;;;8.30;71.70;;;;;;5035142;28;20104;-67
2023/03/19 02:21:59;;;;;;;25.57;14.60;;;8.30;71.80;;;;;;5034875;28;20461;-67
2023/03/19 02:24:31;;;;;;;25.93;14.53;;;8.30;71.80;;;;;;5034844;28;20033;-67
2023/03/19 02:26:58;;;;;;;26.97;14.77;;;8.20;71.70;;;;;;5034091;28;20033;-67
2023/03/19 02:29:23;;;;;;;26.97;15.13;;;8.30;71.60;;;;;;5034782;28;20056;-67
2023/03/19 02:31:49;;;;;;;20.97;13.67;;;8.30;71.40;;;;;;5034946;28;20030;-67
2023/03/19 02:34:18;;;;;;;19.10;12.23;;;8.20;71.30;;;;;;5035038;28;20026;-67
2023/03/19 02:36:50;;;;;;;18.90;11.77;;;8.20;71.20;;;;;;5034620;28;20461;-67
2023/03/19 02:39:34;;;;;;;22.08;11.55;;;8.20;71.20;;;;;;5034864;28;20399;-67
2023/03/19 02:42:01;;;;;;;19.07;11.07;;;8.20;71.10;;;;;;5034249;28;20485;-67
2023/03/19 02:44:26;;;;;;;19.53;12.07;;;8.20;71.10;;;;;;5034276;28;20073;-67
2023/03/19 02:46:52;;;;;;;20.77;11.60;;;8.20;71.00;;;;;;5034891;28;20042;-67
2023/03/19 02:49:19;;;;;;;18.50;11.93;;;8.20;71.20;;;;;;5034468;28;20054;-67
2023/03/19 02:51:44;;;;;;;22.97;12.53;;;8.10;71.20;;;;;;5034423;28;20428;-67
2023/03/19 02:54:10;;;;;;;21.80;12.23;;;8.10;71.20;;;;;;5034243;28;20112;-67
2023/03/19 02:56:36;;;;;;;23.33;13.43;;;8.10;71.30;;;;;;5034532;28;20033;-67
2023/03/19 02:59:02;;;;;;;24.80;13.33;;;8.10;71.30;;;;;;5034352;28;20028;-67
2023/03/19 03:01:28;;;;;;;20.90;12.80;;;8.00;71.30;;;;;;5034806;28;20029;-67
2023/03/19 03:03:54;;;;;;;24.73;12.90;;;8.00;71.40;;;;;;5034287;28;20033;-66
2023/03/19 03:06:20;;;;;;;21.10;13.10;;;8.00;71.60;;;;;;5034776;28;20040;-65
2023/03/19 03:08:46;;;;;;;21.03;14.33;;;8.00;71.60;;;;;;5035083;28;20064;-65
2023/03/19 03:11:12;;;;;;;24.00;13.93;;;7.90;71.70;;;;;;5035117;28;20482;-66
2023/03/19 03:13:38;;;;;;;21.77;13.50;;;7.90;71.90;;;;;;5017284;28;20474;-66
2023/03/19 03:20:35;;;;;;;20.17;13.02;;;7.90;72.40;;;;;;4916197;29;20358;-65
2023/03/19 03:23:30;;;;;;;21.70;13.37;;;7.90;72.30;;;;;;4916110;29;20471;-66
2023/03/19 03:27:27;;;;;;;21.80;12.40;;;7.80;72.30;;;;;;4916089;29;20080;-66
2023/03/19 03:30:11;;;;;;;21.63;12.73;;;7.80;72.30;;;;;;4889429;29;20044;-65
2023/03/19 03:33:22;;;;;;;18.40;12.47;;;7.80;72.40;;;;;;4897206;29;20159;-66
2023/03/19 03:36:42;;;;;;;24.93;12.20;;;7.80;72.60;;;;;;4859270;29;20078;-66
2023/03/19 03:42:43;;;;;;;21.97;11.77;;;7.80;73.10;;;;;;4874327;29;20517;-67
2023/03/19 03:45:11;;;;;;;21.10;12.57;;;7.80;73.10;;;;;;4946255;29;20063;-67
2023/03/19 03:47:38;;;;;;;23.60;12.73;;;7.70;73.10;;;;;;4958861;28;20059;-67
2023/03/19 03:50:04;;;;;;;21.63;12.60;;;7.70;73.80;;;;;;5019402;28;20037;-67
2023/03/19 03:52:32;;;;;;;17.97;11.73;;;7.70;73.70;;;;;;5015836;28;20488;-67
2023/03/19 03:54:59;;;;;;;22.60;11.97;;;7.70;73.80;;;;;;5033430;28;20054;-67
2023/03/19 03:57:26;;;;;;;22.50;12.40;;;7.60;73.80;;;;;;5033597;28;20029;-67
2023/03/19 03:59:52;;;;;;;25.40;13.00;;;7.60;74.20;;;;;;5015769;28;20028;-67
2023/03/19 04:02:19;;;;;;;20.53;12.53;;;7.60;74.30;;;;;;5015595;28;20499;-67
2023/03/19 04:04:45;;;;;;;20.17;12.17;;;7.60;74.00;;;;;;5032985;28;20029;-67
2023/03/19 04:07:11;;;;;;;17.43;11.53;;;7.60;74.30;;;;;;5033166;28;20117;-67
2023/03/19 04:09:36;;;;;;;21.10;12.63;;;7.60;75.10;;;;;;5032953;28;20030;-67
2023/03/19 04:12:03;;;;;;;22.00;12.50;;;7.50;74.70;;;;;;5032996;28;20037;-67
2023/03/19 04:14:28;;;;;;;19.17;12.00;;;7.50;75.00;;;;;;5032948;28;20422;-67
2023/03/19 04:16:54;;;;;;;22.53;12.50;;;7.50;74.10;;;;;;5032924;28;20036;-66
2023/03/19 04:19:20;;;;;;;17.97;11.93;;;7.50;74.30;;;;;;5033110;28;20017;-67
2023/03/19 04:21:46;;;;;;;25.67;13.57;;;7.50;74.10;;;;;;5032795;28;20029;-67
2023/03/19 04:24:12;;;;;;;18.63;12.60;;;7.50;74.20;;;;;;5032901;28;20109;-66
2023/03/19 04:26:38;;;;;;;23.63;12.47;;;7.50;75.00;;;;;;5033030;28;20037;-67
2023/03/19 04:29:04;;;;;;;22.33;12.30;;;7.40;74.30;;;;;;5032876;28;20047;-66
2023/03/19 04:31:30;;;;;;;20.87;10.83;;;7.40;74.00;;;;;;5032627;28;20065;-67
2023/03/19 04:33:56;;;;;;;21.10;12.00;;;7.40;73.70;;;;;;5032660;28;20053;-67
2023/03/19 04:36:22;;;;;;;22.00;12.60;;;7.40;73.50;;;;;;5032817;28;20033;-67
2023/03/19 04:38:48;;;;;;;19.73;11.90;;;7.40;73.60;;;;;;5032663;28;20049;-66
2023/03/19 04:41:15;;;;;;;22.57;11.53;;;7.30;74.00;;;;;;5032684;28;20099;-66
2023/03/19 04:43:41;;;;;;;18.23;10.77;;;7.30;74.20;;;;;;5032291;28;20044;-66
2023/03/19 04:46:07;;;;;;;19.67;11.30;;;7.30;74.30;;;;;;5033616;28;20033;-66
2023/03/19 04:48:34;;;;;;;24.37;11.90;;;7.30;74.60;;;;;;5040415;28;20044;-67
2023/03/19 04:51:02;;;;;;;17.90;11.77;;;7.30;74.80;;;;;;5053013;28;20033;-67
2023/03/19 04:53:29;;;;;;;19.83;12.00;;;7.30;74.80;;;;;;5053052;28;20400;-67
2023/03/19 04:55:55;;;;;;;19.50;11.57;;;7.30;74.80;;;;;;5052959;28;20029;-67
2023/03/19 04:58:21;;;;;;;19.93;10.77;;;7.30;74.70;;;;;;5052863;28;20423;-67
2023/03/19 05:00:48;;;;;;;17.97;11.33;;;7.30;74.90;;;;;;5052624;28;20029;-66
2023/03/19 05:03:43;;;;;;;20.33;10.93;;;7.30;74.70;;;;;;5052425;28;20029;-67
2023/03/19 05:24:03;;;;;;;18.57;10.27;;;7.20;75.30;;;;;;4878085;29;20059;-67
2023/03/19 05:26:57;;;;;;;16.70;10.40;;;7.20;75.90;;;;;;4981487;28;20050;-67
2023/03/19 05:29:35;;;;;;;16.90;9.63;;;7.20;75.80;;;;;;4989229;28;20030;-67
2023/03/19 05:32:02;;;;;;;18.20;9.57;;;7.30;76.00;;;;;;5006612;28;20206;-66
2023/03/19 05:34:28;;;;;;;17.50;10.27;;;7.20;76.10;;;;;;5052352;28;20024;-67
2023/03/19 05:36:54;;;;;;;16.83;10.27;;;7.30;76.10;;;;;;5052304;28;20396;-67
2023/03/19 05:39:20;;;;;;;22.13;10.33;;;7.30;75.80;;;;;;5052474;28;20112;-67
2023/03/19 05:41:46;;;;;;;19.47;11.57;;;7.30;75.40;;;;;;5052238;28;20112;-67
2023/03/19 05:44:12;;;;;;;21.00;11.77;;;7.30;75.40;;;;;;5051911;28;20047;-67
2023/03/19 05:46:37;;;;;;;20.30;12.60;;;7.30;75.40;;;;;;5052065;28;20033;-66
2023/03/19 05:49:04;;;;;;;21.27;12.53;;;7.30;75.50;;;;;;5051897;28;20136;-66
2023/03/19 05:51:30;;;;;;;26.17;12.10;;;7.30;75.40;;;;;;5051960;28;20437;-66
2023/03/19 05:53:56;;;;;;;27.07;13.67;;;7.30;75.30;;;;;;5051868;28;20476;-67
2023/03/19 05:56:22;;;;;;;22.67;12.00;;;7.30;75.40;;;;;;5051861;28;20033;-66
2023/03/19 05:58:48;;;;;;;19.60;12.23;;;7.30;75.60;;;;;;5051796;28;20025;-67
2023/03/19 06:01:15;;;;;;;23.17;11.60;;;7.40;75.90;;;;;;5052783;28;20047;-67
2023/03/19 06:03:40;;;;;;;20.83;11.50;;;7.40;76.40;;;;;;5055508;28;20518;-67
2023/03/19 06:06:07;;;;;;;22.87;12.10;;;7.40;77.50;;;;;;5055331;28;20040;-67
2023/03/19 06:08:33;;;;;;;18.47;12.83;;;7.40;77.20;;;;;;5034442;28;20033;-67
2023/03/19 06:10:58;;;;;;;21.53;12.70;;;7.40;77.20;;;;;;5054272;28;20078;-67
2023/03/19 06:13:25;;;;;;;23.00;12.23;;;7.40;77.00;;;;;;5054947;28;20459;-68
2023/03/19 06:15:50;;;;;;;19.87;12.97;;;7.40;76.80;;;;;;5055036;28;20385;-68
2023/03/19 06:18:17;;;;;;;21.80;11.93;;;7.50;77.00;;;;;;5054947;28;20025;-68
2023/03/19 06:20:43;;;;;;;17.77;11.33;;;7.70;80.30;;;;;;5055411;28;20029;-67
2023/03/19 06:23:09;;;;;;;21.10;11.60;;;7.50;77.50;;;;;;5054982;28;20029;-67
2023/03/19 06:25:36;;;;;;;17.90;12.17;;;7.50;77.70;;;;;;5054903;28;20045;-67
2023/03/19 06:28:02;;;;;;;20.37;10.97;;;7.60;77.70;;;;;;5054980;28;20023;-67
2023/03/19 06:30:28;;;;;;;22.97;12.57;;;7.60;77.80;;;;;;5055143;28;20039;-67
2023/03/19 06:32:54;;;;;;;20.53;12.20;;;7.60;78.40;;;;;;5055078;28;20017;-67
2023/03/19 06:35:19;;;;;;;24.33;12.23;;;7.70;77.50;;;;;;5054775;28;20098;-67
2023/03/19 06:37:46;;;;;;;27.70;16.10;;;7.70;77.40;;;;;;5054310;28;20029;-67
2023/03/19 06:40:12;;;;;;;28.40;16.30;;;7.70;77.20;;;;;;5054867;28;20087;-67
2023/03/19 06:42:38;;;;;;;26.47;13.67;;;7.80;76.80;;;;;;5055181;28;20404;-67
2023/03/19 06:45:05;;;;;;;25.37;13.57;;;7.80;77.60;;;;;;5054765;28;20029;-67
2023/03/19 06:47:31;;;;;;;21.57;12.37;;;7.80;76.60;;;;;;5054733;28;20120;-67
2023/03/19 06:50:10;;;;;;;21.97;11.37;;;7.80;76.70;;;;;;5054767;28;20028;-68
2023/03/19 06:52:37;;;;;;;20.83;11.40;;;7.80;76.60;;;;;;5052996;28;20035;-68
2023/03/19 06:55:36;;;;;;;20.23;11.03;;;7.90;76.50;;;;;;5054537;28;20084;-68
2023/03/19 06:58:05;;;;;;;22.83;11.00;;;7.90;76.40;;;;;;5032369;28;20037;-67
2023/03/19 07:00:35;;;;;;;20.07;10.47;;;7.90;76.40;;;;;;5033366;28;20439;-68
2023/03/19 07:03:01;;;;;;;21.23;11.80;;;8.00;77.20;;;;;;5017427;28;20021;-67
2023/03/19 07:05:27;;;;;;;24.03;12.63;;;8.00;77.30;;;;;;5033325;28;20039;-67
2023/03/19 07:07:59;;;;;;;22.43;12.73;;;8.00;77.70;;;;;;5015942;28;20022;-67
2023/03/19 07:10:25;;;;;;;23.52;12.60;;;8.10;78.10;;;;;;5033729;28;20052;-67
2023/03/19 07:12:57;;;;;;;23.87;12.93;;;8.10;77.80;;;;;;5015167;28;20095;-67
2023/03/19 07:18:34;;;;;;;18.70;10.67;;;8.20;77.80;;;;;;5010982;28;20500;-67
2023/03/19 07:21:00;;;;;;;20.90;10.57;;;8.30;78.10;;;;;;5031612;28;20084;-68
2023/03/19 07:23:26;;;;;;;19.53;10.27;;;8.30;77.70;;;;;;5031826;28;20033;-68
2023/03/19 07:25:52;;;;;;;16.27;10.60;;;8.40;77.80;;;;;;5033808;28;20037;-68
2023/03/19 07:28:18;;;;;;;19.77;11.70;;;8.50;77.80;;;;;;5034093;28;20138;-68
2023/03/19 07:30:43;;;;;;;17.60;11.27;;;8.50;77.60;;;;;;5033920;28;20029;-67
2023/03/19 07:33:09;;;;;;;18.00;10.80;;;8.60;77.70;;;;;;5033819;28;20469;-68
2023/03/19 07:35:35;;;;;;;21.37;11.23;;;8.60;78.00;;;;;;5033841;28;20014;-67
2023/03/19 07:38:01;;;;;;;19.77;10.43;;;8.70;77.50;;;;;;5015850;28;20057;-68
2023/03/19 07:40:27;;;;;;;18.90;10.90;;;8.70;77.80;;;;;;5048186;28;20032;-68
2023/03/19 07:42:53;;;;;;;18.27;11.00;;;8.70;78.00;;;;;;5053354;28;20029;-68
2023/03/19 07:45:19;;;;;;;20.07;10.57;;;8.80;78.20;;;;;;5052275;28;20025;-67
2023/03/19 07:47:46;;;;;;;17.00;10.53;;;8.90;78.20;;;;;;5050839;28;20466;-67
2023/03/19 07:50:12;;;;;;;18.07;10.00;;;8.90;78.30;;;;;;5051241;28;20028;-67
2023/03/19 07:52:37;;;;;;;15.27;10.20;;;9.00;78.10;;;;;;5053277;28;20025;-68
2023/03/19 07:55:04;;;;;;;18.90;11.47;;;9.00;78.10;;;;;;5053327;28;20025;-68
2023/03/19 07:57:31;;;;;;;16.63;10.23;;;9.10;78.20;;;;;;5053165;28;20025;-68
2023/03/19 07:59:57;;;;;;;14.07;9.53;;;9.10;78.00;;;;;;5053435;28;20108;-68
2023/03/19 08:02:23;;;;;;;18.00;9.83;;;9.20;77.70;;;;;;5053416;28;20167;-68
2023/03/19 08:04:49;;;;;;;17.70;9.27;;;9.30;77.10;;;;;;5053271;28;20025;-68
2023/03/19 08:07:15;;;;;;;15.00;8.87;;;9.30;76.80;;;;;;5053133;28;20040;-68
2023/03/19 08:09:41;;;;;;;15.43;8.13;;;9.40;76.50;;;;;;5053538;28;20401;-68
2023/03/19 08:12:07;;;;;;;15.53;9.80;;;9.50;76.30;;;;;;5053024;28;20025;-67
2023/03/19 08:14:34;;;;;;;14.60;9.20;;;9.50;75.90;;;;;;5053058;28;20021;-67
2023/03/19 08:17:00;;;;;;;18.40;8.53;;;9.60;75.30;;;;;;5053128;28;20056;-67
2023/03/19 08:19:26;;;;;;;17.00;9.03;;;9.70;75.10;;;;;;5053058;28;20118;-67
2023/03/19 08:21:52;;;;;;;12.83;8.17;;;9.80;74.60;;;;;;5052899;28;20025;-67
2023/03/19 08:24:18;;;;;;;16.63;9.20;;;9.80;74.10;;;;;;5052812;28;20029;-68
2023/03/19 08:26:45;;;;;;;13.57;8.30;;;9.90;73.40;;;;;;5053438;28;20409;-67
2023/03/19 08:29:11;;;;;;;14.40;8.60;;;9.90;73.20;;;;;;5053314;28;20052;-67
2023/03/19 08:31:37;;;;;;;15.40;8.77;;;10.00;73.40;;;;;;5053536;28;20060;-68
2023/03/19 08:34:03;;;;;;;15.87;8.57;;;10.00;73.60;;;;;;5053328;28;20021;-67
2023/03/19 08:36:33;;;;;;;13.70;8.27;;;10.00;73.40;;;;;;5032003;28;20037;-67
2023/03/19 08:59:19;;;;;;;12.93;7.22;;;10.50;72.90;;;;;;4865373;29;20521;-68
2023/03/19 09:05:03;;;;;;;11.23;7.00;;;10.70;72.20;;;;;;4851066;29;20173;-68
2023/03/19 09:07:29;;;;;;;12.53;7.23;;;10.90;71.50;;;;;;4928825;28;20510;-68
2023/03/19 09:09:55;;;;;;;10.85;7.35;;;10.90;71.30;;;;;;5007577;28;20033;-68
2023/03/19 09:12:21;;;;;;;13.23;7.80;;;11.00;71.00;;;;;;5032502;28;20384;-67
2023/03/19 09:14:47;;;;;;;13.40;8.70;;;11.10;70.90;;;;;;5032073;28;20022;-68
2023/03/19 09:17:14;;;;;;;18.83;8.97;;;11.20;71.10;;;;;;5030376;28;20013;-68
2023/03/19 09:19:40;;;;;;;11.82;7.88;;;11.20;70.80;;;;;;5031714;28;20021;-66
2023/03/19 09:22:06;;;;;;;11.93;7.78;;;11.20;70.40;;;;;;5014604;28;20021;-67
2023/03/19 09:24:32;;;;;;;11.70;7.68;;;11.30;70.10;;;;;;5031714;28;20105;-66
2023/03/19 09:26:58;;;;;;;13.77;7.75;;;11.30;70.40;;;;;;5031326;28;20078;-66
2023/03/19 09:29:24;;;;;;;11.83;7.20;;;11.30;70.30;;;;;;5031340;28;20022;-68
2023/03/19 09:31:50;;;;;;;12.50;7.95;;;11.30;70.10;;;;;;5031736;28;20021;-66
2023/03/19 09:34:15;;;;;;;14.98;6.93;;;11.30;70.00;;;;;;5028996;28;20492;-66
2023/03/19 09:36:41;;;;;;;11.20;6.82;;;11.30;69.60;;;;;;5032324;28;20485;-66
2023/03/19 09:39:07;;;;;;;13.23;7.40;;;11.40;69.20;;;;;;5033428;28;20029;-66
2023/03/19 09:41:42;;;;;;;11.43;6.20;;;11.40;68.40;;;;;;5035722;28;20060;-66
2023/03/19 09:44:10;;;;;;;11.45;6.35;;;11.50;67.10;;;;;;5035178;28;20496;-66
2023/03/19 09:46:53;;;;;;;9.43;5.20;;;11.60;66.30;;;;;;5035347;28;20083;-66
2023/03/19 09:49:31;;;;;;;13.90;5.57;;;11.70;65.20;;;;;;5052797;28;20045;-66
2023/03/19 09:52:21;;;;;;;11.82;5.13;;;11.80;64.80;;;;;;5055801;28;20019;-67
2023/03/19 09:54:52;;;;;;;8.88;4.63;;;11.90;64.80;;;;;;5041788;28;20079;-67
2023/03/19 09:57:18;;;;;;;9.88;4.70;;;12.10;63.20;;;;;;5055726;28;20063;-67
2023/03/19 09:59:46;;;;;;;8.70;4.40;;;12.20;61.20;;;;;;5052775;28;20032;-67
2023/03/19 10:02:21;;;;;;;8.60;4.32;;;12.30;60.10;;;;;;5052897;28;20024;-67
2023/03/19 10:04:52;;;;;;;11.38;4.28;;;12.40;58.50;;;;;;5052948;28;20021;-67
2023/03/19 10:07:24;;;;;;;10.10;4.70;;;12.50;58.10;;;;;;5055426;28;20051;-66
2023/03/19 10:10:14;;;;;;;11.07;4.68;;;12.60;58.50;;;;;;5055338;28;20021;-67
2023/03/19 10:13:11;;;;;;;13.32;4.20;;;12.70;58.80;;;;;;5040400;28;20225;-67
2023/03/19 10:15:38;;;;;;;7.40;3.88;;;12.80;57.60;;;;;;5035880;28;20389;-67
2023/03/19 10:18:14;;;;;;;9.75;3.75;;;12.90;55.80;;;;;;5035810;28;20062;-67
2023/03/19 10:20:44;;;;;;;7.18;3.65;;;;;;;;;;5014679;28;20033;-67
2023/03/19 10:23:34;;;;;;;6.78;3.35;;;13.00;55.50;;;;;;5035430;28;20389;-67
2023/03/19 10:32:46;;;;;;;5.50;3.28;;;13.10;54.30;;;;;;5008071;28;20038;-67
2023/03/19 10:45:28;;;;;;;6.47;3.70;;;13.40;55.50;;;;;;4954896;28;20033;-67
2023/03/19 10:51:45;;;;;;;7.22;3.75;;;13.50;54.10;;;;;;4879018;29;20040;-67
2023/03/19 10:54:25;;;;;;;10.50;4.20;;;13.50;53.30;;;;;;4978445;28;20422;-67
2023/03/19 10:56:55;;;;;;;8.85;4.65;;;13.60;53.20;;;;;;5025543;28;20030;-67
2023/03/19 10:59:30;;;;;;;12.23;4.70;;;13.60;53.80;;;;;;5017158;28;20381;-66
2023/03/19 11:02:15;;;;;;;10.60;4.60;;;13.60;54.00;;;;;;5035052;28;20381;-66
2023/03/19 11:04:40;;;;;;;8.95;4.40;;;13.80;54.90;;;;;;5034704;28;20030;-66
2023/03/19 11:07:20;;;;;;;12.57;4.93;;;13.80;54.80;;;;;;5034409;28;20099;-66
2023/03/19 11:09:50;;;;;;;10.85;5.53;;;13.90;54.50;;;;;;5034534;28;20025;-66
2023/03/19 11:12:23;;;;;;;8.25;4.60;;;13.90;55.20;;;;;;5034718;28;20032;-67
2023/03/19 11:14:55;;;;;;;11.70;4.85;;;14.10;55.00;;;;;;5034431;28;20112;-66
2023/03/19 11:17:39;;;;;;;13.57;4.72;;;14.10;52.80;;;;;;5034317;28;20034;-67
2023/03/19 11:20:34;;;;;;;11.75;4.32;;;14.20;53.10;;;;;;5034527;28;20113;-67
2023/03/19 11:23:02;;;;;;;9.80;4.00;;;14.20;52.70;;;;;;5034253;28;20036;-67
2023/03/19 11:25:40;;;;;;;8.10;3.38;;;14.30;53.00;;;;;;5034136;28;20485;-66
2023/03/19 11:28:16;;;;;;;8.77;4.60;;;14.30;51.70;;;;;;5034058;28;20426;-67
2023/03/19 11:30:56;;;;;;;7.70;3.33;;;14.20;49.80;;;;;;5034004;28;20053;-66
2023/03/19 11:33:47;;;;;;;4.28;2.40;;;14.30;51.00;;;;;;5026512;28;20033;-67
2023/03/19 11:36:32;;;;;;;3.95;2.20;;;14.30;51.20;;;;;;5026408;28;20029;-66
2023/03/19 11:39:36;;;;;;;7.57;2.85;;;14.30;49.10;;;;;;5026951;28;20017;-66
2023/03/19 11:42:13;;;;;;;5.70;2.42;;;14.30;49.30;;;;;;4972281;28;20129;-67
2023/03/19 11:44:54;;;;;;;4.22;2.10;;;14.30;48.70;;;;;;5019570;28;20037;-66
2023/03/19 11:47:27;;;;;;;6.55;2.20;;;14.30;49.10;;;;;;5018911;28;20092;-66
2023/03/19 11:49:52;;;;;;;4.10;1.92;;;14.30;48.90;;;;;;5032072;28;20026;-66
2023/03/19 11:52:29;;;;;;;6.35;2.20;;;14.30;48.80;;;;;;5031905;28;20103;-67
2023/03/19 11:55:13;;;;;;;3.35;1.80;;;14.30;48.40;;;;;;5032079;28;20022;-66
2023/03/19 11:58:03;;;;;;;4.53;2.10;;;14.30;48.60;;;;;;5033509;28;20405;-67
2023/03/19 12:00:46;;;;;;;4.82;2.50;;;14.30;48.60;;;;;;5030518;28;20436;-67
2023/03/19 12:03:29;;;;;;;5.00;2.33;;;14.30;48.40;;;;;;5032112;28;20018;-68
2023/03/19 12:06:27;;;;;;;7.78;2.50;;;14.20;48.80;;;;;;5033576;28;20033;-67
2023/03/19 12:19:36;;;;;;;7.22;3.10;;;14.30;50.80;;;;;;4990811;28;20057;-66
2023/03/19 12:35:55;;;;;;;7.15;3.70;;;14.30;52.10;;;;;;4994241;28;20041;-66
2023/03/19 12:38:26;;;;;;;8.98;4.68;;;14.30;51.80;;;;;;4986139;28;20054;-66
2023/03/19 12:40:57;;;;;;;8.37;4.20;;;14.40;52.20;;;;;;5019436;28;20390;-66
2023/03/19 12:43:37;;;;;;;8.40;3.60;;;14.50;52.80;;;;;;5029920;28;20032;-66
2023/03/19 12:46:05;;;;;;;8.07;3.78;;;14.60;53.00;;;;;;5029441;28;20037;-66
2023/03/19 12:48:49;;;;;;;7.35;3.97;;;14.80;52.90;;;;;;5032126;28;20038;-66
2023/03/19 12:51:21;;;;;;;10.68;3.97;;;14.90;51.30;;;;;;5032559;28;20389;-71
2023/03/19 12:54:05;;;;;;;10.00;3.80;;;15.10;51.00;;;;;;5032259;28;20420;-67
2023/03/19 12:57:09;;;;;;;7.70;3.33;;;15.10;50.10;;;;;;5032821;28;20392;-66
2023/03/19 12:59:58;;;;;;;10.25;3.55;;;15.20;50.40;;;;;;5032763;28;20365;-66
2023/03/19 13:02:35;;;;;;;6.68;3.13;;;15.10;50.30;;;;;;5032163;28;20496;-66
2023/03/19 13:05:13;;;;;;;7.90;3.38;;;15.10;49.50;;;;;;5032237;28;20493;-66
2023/03/19 13:08:02;;;;;;;10.70;3.45;;;15.00;50.50;;;;;;5032206;28;20555;-66
2023/03/19 13:10:31;;;;;;;7.93;3.70;;;15.00;51.00;;;;;;5033195;28;20029;-66
2023/03/19 13:12:59;;;;;;;9.50;3.53;;;14.90;51.20;;;;;;5035208;28;20587;-66
2023/03/19 13:15:30;;;;;;;7.30;4.18;;;14.80;51.20;;;;;;5032877;28;20489;-66
2023/03/19 13:18:34;;;;;;;7.80;3.20;;;14.80;51.20;;;;;;5033396;28;20032;-67
2023/03/19 13:21:05;;;;;;;8.75;5.00;;;14.80;50.90;;;;;;5017729;28;20025;-68
2023/03/19 13:23:35;;;;;;;10.00;3.10;;;14.70;49.80;;;;;;5035464;28;20037;-67
2023/03/19 13:26:04;;;;;;;9.95;3.42;;;14.70;49.60;;;;;;5034900;28;20037;-67
2023/03/19 13:28:33;;;;;;;8.02;3.97;;;14.70;49.70;;;;;;5035051;28;20394;-67
2023/03/19 13:31:02;;;;;;;7.10;3.50;;;14.70;49.90;;;;;;5033134;28;20053;-66
2023/03/19 13:33:28;;;;;;;7.22;2.65;;;14.70;50.50;;;;;;5032540;28;20078;-66
2023/03/19 13:35:55;;;;;;;6.22;2.25;;;14.70;50.50;;;;;;5032579;28;20033;-66
2023/03/19 13:38:25;;;;;;;7.28;2.83;;;14.70;50.40;;;;;;5035322;28;20107;-67
2023/03/19 13:40:53;;;;;;;3.83;2.20;;;14.60;49.90;;;;;;5035847;28;20025;-67
2023/03/19 13:43:28;;;;;;;7.65;2.50;;;14.60;50.10;;;;;;5035446;28;20104;-66
2023/03/19 13:46:05;;;;;;;6.53;2.50;;;14.60;50.40;;;;;;5035843;28;20382;-67
2023/03/19 13:48:30;;;;;;;9.00;2.50;;;14.60;50.50;;;;;;5035883;28;20180;-67
2023/03/19 13:51:05;;;;;;;6.40;2.28;;;14.60;50.60;;;;;;5036125;28;20056;-67
2023/03/19 13:53:54;;;;;;;10.80;2.40;;;14.60;50.50;;;;;;5036241;28;20385;-68
2023/03/19 14:07:25;;;;;;;5.03;2.58;;;14.60;49.70;;;;;;4879950;29;20099;-67
2023/03/19 14:10:28;;;;;;;8.25;2.45;;;14.60;49.30;;;;;;4879617;29;20453;-68
2023/03/19 14:13:30;;;;;;;4.57;2.00;;;14.50;49.50;;;;;;4879181;29;20465;-67
2023/03/19 14:16:32;;;;;;;;;;;;;;;;;;;;;
2023/03/19 14:19:57;;;;;;;4.82;2.42;;;14.50;50.20;;;;;;4954728;29;20064;-67
2023/03/19 14:22:36;;;;;;;4.78;2.17;;;14.40;49.80;;;;;;4937348;28;20035;-68
2023/03/19 14:25:16;;;;;;;6.07;2.63;;;14.40;50.50;;;;;;4957360;28;20144;-67
2023/03/19 14:27:52;;;;;;;4.88;2.30;;;14.40;51.20;;;;;;5034758;28;20044;-67
2023/03/19 14:30:37;;;;;;;3.15;1.65;;;14.40;50.60;;;;;;5034512;28;20105;-66
2023/03/19 14:33:07;;;;;;;28.10;13.23;;;14.40;51.30;;;;;;5035281;28;20033;-66
2023/03/19 14:35:40;;;;;;;44.30;23.13;;;14.40;52.10;;;;;;5035032;28;20026;-66
2023/03/19 14:38:44;;;;;;;7.65;3.65;;;14.40;52.30;;;;;;5034841;28;20029;-66
2023/03/19 14:41:15;;;;;;;5.93;3.30;;;14.40;52.50;;;;;;4985791;28;20049;-67
2023/03/19 14:44:00;;;;;;;6.60;3.05;;;14.40;53.10;;;;;;5034805;28;20419;-67
2023/03/19 14:47:03;;;;;;;4.88;2.50;;;14.40;53.30;;;;;;5034367;28;20477;-66
2023/03/19 14:49:49;;;;;;;4.60;2.88;;;14.40;53.40;;;;;;5033902;28;20517;-66
2023/03/19 14:52:39;;;;;;;4.25;2.38;;;14.30;53.80;;;;;;5034329;28;20531;-66
2023/03/19 14:55:12;;;;;;;5.35;2.10;;;14.30;53.20;;;;;;5034802;28;20037;-67
2023/03/19 14:57:38;;;;;;;5.35;2.72;;;14.30;53.10;;;;;;5034608;28;20482;-67
2023/03/19 15:00:12;;;;;;;6.63;2.75;;;14.30;53.20;;;;;;5033539;28;20029;-67
2023/03/19 15:02:51;;;;;;;5.90;2.20;;;14.30;52.80;;;;;;5012652;28;20034;-67
2023/03/19 15:05:28;;;;;;;7.22;3.47;;;14.30;53.00;;;;;;5027530;28;20541;-67
2023/03/19 15:08:00;;;;;;;5.65;2.58;;;14.30;52.70;;;;;;5034113;28;20116;-66
2023/03/19 15:10:40;;;;;;;6.68;2.90;;;14.30;53.20;;;;;;5034413;28;20025;-67
2023/03/19 15:13:30;;;;;;;3.92;2.20;;;14.30;53.40;;;;;;5033998;28;20021;-66
2023/03/19 15:16:20;;;;;;;4.35;2.00;;;14.30;53.80;;;;;;5033850;28;20120;-66
2023/03/19 15:18:46;;;;;;;5.47;2.05;;;14.30;53.90;;;;;;5033788;28;20034;-67
2023/03/19 15:21:12;;;;;;;4.50;2.35;;;14.30;53.90;;;;;;5034588;28;20022;-67